createdAt,value
2022-09-05T03:58:16.753Z,501.00
2022-09-05T03:59:15.082Z,481.00
2022-09-05T04:00:14.244Z,488.00
2022-09-05T04:02:10.186Z,487.00
2022-09-05T04:06:02.597Z,488.00
2022-09-05T04:08:06.697Z,489.00
2022-09-05T04:08:14.567Z,489.00
2022-09-05T04:08:17.617Z,490.00
2022-09-05T04:08:20.895Z,493.00
2022-09-05T04:08:28.210Z,489.00
2022-09-05T04:08:31.291Z,492.00
2022-09-05T04:09:26.654Z,492.00
2022-09-05T04:10:18.315Z,493.00
2022-09-05T04:11:15.690Z,495.00
2022-09-05T04:12:17.437Z,494.00
2022-09-05T04:13:17.199Z,493.00
2022-09-05T04:14:16.117Z,491.00
2022-09-05T04:15:16.293Z,492.00
2022-09-05T04:16:16.592Z,493.00
2022-09-05T04:17:18.130Z,495.00
2022-09-05T04:18:18.379Z,492.00
2022-09-05T04:19:17.848Z,491.00
2022-09-05T04:20:17.003Z,488.00
2022-09-05T04:21:17.031Z,488.00
2022-09-05T04:22:18.090Z,485.00
2022-09-05T04:23:18.361Z,486.00
2022-09-05T04:24:17.400Z,485.00
2022-09-05T04:25:17.520Z,489.00
2022-09-05T04:26:17.643Z,490.00
2022-09-05T04:27:19.359Z,490.00
2022-09-05T04:28:19.181Z,489.00
2022-09-05T04:29:19.808Z,487.00
2022-09-05T04:30:38.937Z,487.00
2022-09-05T04:31:19.283Z,487.00
2022-09-05T04:32:19.728Z,487.00
2022-09-05T04:33:23.434Z,485.00
2022-09-05T04:34:19.589Z,484.00
2022-09-05T04:35:18.749Z,486.00
2022-09-05T04:36:18.846Z,486.00
2022-09-05T04:37:18.973Z,486.00
2022-09-05T04:38:20.827Z,483.00
2022-09-05T04:39:19.198Z,484.00
2022-09-05T04:40:19.360Z,482.00
2022-09-05T04:41:36.525Z,481.00
2022-09-05T04:42:20.538Z,481.00
2022-09-05T04:43:21.258Z,480.00
2022-09-05T04:44:19.749Z,481.00
2022-09-05T04:45:24.298Z,480.00
2022-09-05T04:46:20.020Z,482.00
2022-09-05T04:47:20.125Z,481.00
2022-09-05T04:48:22.246Z,480.00
2022-09-05T04:49:20.518Z,482.00
2022-09-05T04:50:23.537Z,481.00
2022-09-05T04:51:21.616Z,483.00
2022-09-05T04:52:28.177Z,482.00
2022-09-05T04:53:23.505Z,482.00
2022-09-05T04:54:21.018Z,485.00
2022-09-05T04:55:22.736Z,484.00
2022-09-05T04:56:21.238Z,483.00
2022-09-05T04:57:21.354Z,483.00
2022-09-05T04:58:23.941Z,482.00
2022-09-05T05:04:06.563Z,482.00
2022-09-05T05:04:32.444Z,481.00
2022-09-05T05:06:04.141Z,481.00
2022-09-05T05:06:08.909Z,477.00
2022-09-05T05:06:09.240Z,480.00
2022-09-05T05:06:10.314Z,479.00
2022-09-05T05:06:14.277Z,479.00
2022-09-05T05:06:37.881Z,477.00
2022-09-05T05:07:23.722Z,479.00
2022-09-05T05:08:27.922Z,478.00
2022-09-05T05:09:23.880Z,479.00
2022-09-05T05:11:22.908Z,475.00
2022-09-05T05:17:54.029Z,477.00
2022-09-05T05:17:54.277Z,477.00
2022-09-05T05:17:58.022Z,477.00
2022-09-05T05:18:08.952Z,478.00
2022-09-05T05:18:10.724Z,477.00
2022-09-05T05:18:11.990Z,478.00
2022-09-05T05:18:14.225Z,476.00
2022-09-05T05:18:49.092Z,476.00
2022-09-05T05:19:25.470Z,477.00
2022-09-05T05:20:41.458Z,477.00
2022-09-05T05:21:25.396Z,480.00
2022-09-05T05:22:24.623Z,480.00
2022-09-05T05:23:27.264Z,481.00
2022-09-05T05:24:26.534Z,481.00
2022-09-05T05:25:24.918Z,482.00
2022-09-05T05:26:26.878Z,480.00
2022-09-05T05:27:25.157Z,479.00
2022-09-05T05:28:25.410Z,478.00
2022-09-05T05:29:25.413Z,476.00
2022-09-05T05:30:27.185Z,478.00
2022-09-05T05:31:25.734Z,479.00
2022-09-05T05:32:45.003Z,482.00
2022-09-05T05:33:26.931Z,481.00
2022-09-05T05:34:28.300Z,482.00
2022-09-05T05:35:27.212Z,481.00
2022-09-05T05:36:27.406Z,482.00
2022-09-05T05:37:26.441Z,483.00
2022-09-05T05:38:28.164Z,481.00
2022-09-05T05:39:26.754Z,483.00
2022-09-05T05:40:27.421Z,481.00
2022-09-05T05:41:28.147Z,481.00
2022-09-05T05:42:27.029Z,481.00
2022-09-05T05:43:28.266Z,478.00
2022-09-05T05:44:27.341Z,478.00
2022-09-05T05:45:29.532Z,477.00
2022-09-05T05:46:27.812Z,476.00
2022-09-05T05:47:32.221Z,474.00
2022-09-05T05:48:27.850Z,473.00
2022-09-05T05:49:30.098Z,470.00
2022-09-05T05:50:28.277Z,470.00
2022-09-05T05:51:36.528Z,472.00
2022-09-05T05:52:37.687Z,472.00
2022-09-05T05:53:42.808Z,473.00
2022-09-05T05:54:29.551Z,471.00
2022-09-05T05:55:51.996Z,471.00
2022-09-05T05:56:30.049Z,471.00
2022-09-05T05:57:35.332Z,471.00
2022-09-05T05:58:32.795Z,472.00
2022-09-05T05:59:33.328Z,470.00
2022-09-05T06:00:29.367Z,470.00
2022-09-05T06:01:50.753Z,471.00
2022-09-05T06:02:31.133Z,472.00
2022-09-05T06:03:32.417Z,471.00
2022-09-05T06:04:36.696Z,471.00
2022-09-05T06:05:34.744Z,471.00
2022-09-05T06:06:30.099Z,470.00
2022-09-05T06:07:40.743Z,470.00
2022-09-05T06:10:57.348Z,470.00
2022-09-05T06:14:07.876Z,470.00
2022-09-05T06:14:59.472Z,504.00
2022-09-05T06:15:05.148Z,491.00
2022-09-05T06:15:06.635Z,491.00
2022-09-05T06:15:27.464Z,503.00
2022-09-05T06:16:28.413Z,490.00
2022-09-05T06:17:28.332Z,486.00
2022-09-05T06:18:26.907Z,488.00
2022-09-05T06:19:30.445Z,485.00
2022-09-05T06:22:04.833Z,485.00
2022-09-05T06:22:06.538Z,487.00
2022-09-05T06:22:28.397Z,488.00
2022-09-05T06:23:39.436Z,487.00
2022-09-05T06:24:28.776Z,487.00
2022-09-05T06:25:27.942Z,486.00
2022-09-05T06:26:31.189Z,485.00
2022-09-05T06:27:29.056Z,485.00
2022-09-05T06:28:28.976Z,487.00
2022-09-05T06:29:34.576Z,487.00
2022-09-05T06:30:29.589Z,487.00
2022-09-05T06:31:31.944Z,492.00
2022-09-05T06:32:28.771Z,490.00
2022-09-05T06:33:31.983Z,489.00
2022-09-05T06:34:35.270Z,491.00
2022-09-05T06:35:31.466Z,488.00
2022-09-05T06:36:30.305Z,488.00
2022-09-05T06:37:30.168Z,489.00
2022-09-05T06:38:30.757Z,489.00
2022-09-05T06:39:30.552Z,489.00
2022-09-05T06:40:32.246Z,491.00
2022-09-05T06:41:32.606Z,488.00
2022-09-05T06:42:42.897Z,486.00
2022-09-05T06:43:32.973Z,489.00
2022-09-05T06:44:31.026Z,489.00
2022-09-05T06:45:32.221Z,490.00
2022-09-05T06:46:52.943Z,492.00
2022-09-05T06:47:38.884Z,493.00
2022-09-05T06:48:47.041Z,492.00
2022-09-05T06:49:38.732Z,490.00
2022-09-05T06:50:59.921Z,491.00
2022-09-05T06:51:32.595Z,491.00
2022-09-05T06:52:32.874Z,490.00
2022-09-05T06:53:33.685Z,490.00
2022-09-05T06:54:32.656Z,489.00
2022-09-05T06:55:33.694Z,490.00
2022-09-05T06:56:32.894Z,489.00
2022-09-05T06:57:32.009Z,490.00
2022-09-05T06:58:32.116Z,491.00
2022-09-05T06:59:34.081Z,491.00
2022-09-05T07:00:32.414Z,488.00
2022-09-05T07:01:55.223Z,489.00
2022-09-05T07:02:58.205Z,489.00
2022-09-05T07:03:33.801Z,489.00
2022-09-05T07:05:37.906Z,490.00
2022-09-05T07:05:39.625Z,493.00
2022-09-05T07:06:41.433Z,493.00
2022-09-05T07:07:35.796Z,495.00
2022-09-05T07:08:35.342Z,494.00
2022-09-05T07:09:34.465Z,492.00
2022-09-05T07:10:38.912Z,494.00
2022-09-05T07:11:34.577Z,496.00
2022-09-05T07:12:33.971Z,495.00
2022-09-05T07:13:34.069Z,495.00
2022-09-05T07:14:36.309Z,499.00
2022-09-05T07:15:34.362Z,499.00
2022-09-05T07:16:37.691Z,499.00
2022-09-05T07:17:48.338Z,500.00
2022-09-05T07:18:36.712Z,498.00
2022-09-05T07:19:36.073Z,498.00
2022-09-05T07:21:15.916Z,496.00
2022-09-05T07:21:37.032Z,498.00
2022-09-05T07:22:47.464Z,497.00
2022-09-05T07:24:05.748Z,496.00
2022-09-05T07:24:54.394Z,495.00
2022-09-05T07:25:37.720Z,494.00
2022-09-05T07:26:54.007Z,492.00
2022-09-05T07:27:44.412Z,492.00
2022-09-05T07:28:37.969Z,493.00
2022-09-05T07:29:36.848Z,492.00
2022-09-05T07:30:38.271Z,493.00
2022-09-05T07:31:38.453Z,491.00
2022-09-05T07:32:37.472Z,490.00
2022-09-05T07:33:44.609Z,488.00
2022-09-05T07:34:46.706Z,486.00
2022-09-05T07:35:42.362Z,487.00
2022-09-05T07:36:37.811Z,488.00
2022-09-05T07:37:43.847Z,489.00
2022-09-05T07:38:52.247Z,487.00
2022-09-05T07:39:38.308Z,486.00
2022-09-05T07:40:44.911Z,488.00
2022-09-05T07:41:37.650Z,490.00
2022-09-05T07:42:40.902Z,490.00
2022-09-05T07:43:37.870Z,491.00
2022-09-05T07:44:42.147Z,492.00
2022-09-05T07:45:56.209Z,494.00
2022-09-05T07:47:30.551Z,495.00
2022-09-05T07:49:16.600Z,522.00
2022-09-05T07:50:50.049Z,517.00
2022-09-05T07:53:01.899Z,513.00
2022-09-05T07:57:00.912Z,517.00
2022-09-05T07:57:02.240Z,510.00
2022-09-05T07:57:03.158Z,512.00
2022-09-05T07:57:10.463Z,534.00
2022-09-05T07:57:57.626Z,509.00
2022-09-05T07:58:54.182Z,510.00
2022-09-05T07:59:54.722Z,509.00
2022-09-05T08:00:53.867Z,506.00
2022-09-05T08:01:53.845Z,506.00
2022-09-05T08:02:55.688Z,506.00
2022-09-05T08:03:56.581Z,503.00
2022-09-05T08:04:54.272Z,502.00
2022-09-05T08:05:54.341Z,502.00
2022-09-05T08:07:47.250Z,501.00
2022-09-05T08:07:55.623Z,499.00
2022-09-05T08:09:21.250Z,497.00
2022-09-05T08:10:06.205Z,498.00
2022-09-05T08:11:24.015Z,499.00
2022-09-05T08:11:58.964Z,497.00
2022-09-05T08:13:23.744Z,500.00
2022-09-05T08:14:27.064Z,501.00
2022-09-05T08:14:56.811Z,501.00
2022-09-05T08:16:13.448Z,500.00
2022-09-05T08:16:56.746Z,502.00
2022-09-05T08:17:55.868Z,503.00
2022-09-05T08:18:57.629Z,506.00
2022-09-05T08:20:08.391Z,508.00
2022-09-05T08:20:57.239Z,509.00
2022-09-05T08:21:57.468Z,509.00
2022-09-05T08:22:58.086Z,510.00
2022-09-05T08:24:01.060Z,510.00
2022-09-05T08:24:56.778Z,509.00
2022-09-05T08:25:57.884Z,507.00
2022-09-05T08:26:57.235Z,509.00
2022-09-05T08:27:57.100Z,509.00
2022-09-05T08:28:58.851Z,510.00
2022-09-05T08:29:58.933Z,511.00
2022-09-05T08:30:58.378Z,512.00
2022-09-05T08:32:01.616Z,512.00
2022-09-05T08:33:10.226Z,510.00
2022-09-05T08:34:01.330Z,507.00
2022-09-05T08:34:58.837Z,506.00
2022-09-05T08:36:01.044Z,509.00
2022-09-05T08:36:59.556Z,512.00
2022-09-05T08:38:00.385Z,518.00
2022-09-05T08:38:58.526Z,516.00
2022-09-05T08:40:11.670Z,513.00
2022-09-05T08:40:59.836Z,513.00
2022-09-05T08:42:05.808Z,513.00
2022-09-05T08:46:17.026Z,514.00
2022-09-05T08:46:35.945Z,514.00
2022-09-05T08:46:40.242Z,514.00
2022-09-05T08:46:40.603Z,515.00
2022-09-05T08:47:01.888Z,512.00
2022-09-05T08:48:06.198Z,515.00
2022-09-05T08:49:11.399Z,515.00
2022-09-05T08:50:01.948Z,514.00
2022-09-05T08:51:07.077Z,513.00
2022-09-05T08:52:00.256Z,511.00
2022-09-05T08:53:01.317Z,510.00
2022-09-05T08:54:01.638Z,512.00
2022-09-05T08:55:07.314Z,514.00
2022-09-05T08:56:00.721Z,513.00
2022-09-05T08:57:01.868Z,512.00
2022-09-05T08:58:00.971Z,512.00
2022-09-05T08:59:28.318Z,513.00
2022-09-05T09:00:20.233Z,515.00
2022-09-05T09:01:04.684Z,516.00
2022-09-05T09:02:45.543Z,519.00
2022-09-05T09:03:05.071Z,523.00
2022-09-05T09:04:02.660Z,522.00
2022-09-05T09:05:02.984Z,520.00
2022-09-05T09:06:14.507Z,519.00
2022-09-05T09:07:47.264Z,522.00
2022-09-05T09:08:04.218Z,523.00
2022-09-05T09:09:05.545Z,521.00
2022-09-05T09:10:03.504Z,520.00
2022-09-05T09:11:03.709Z,519.00
2022-09-05T09:12:03.985Z,520.00
2022-09-05T09:13:03.986Z,520.00
2022-09-05T09:14:07.598Z,518.00
2022-09-05T09:15:05.115Z,516.00
2022-09-05T09:16:05.295Z,517.00
2022-09-05T09:17:06.492Z,517.00
2022-09-05T09:18:10.309Z,514.00
2022-09-05T09:19:05.526Z,516.00
2022-09-05T09:20:04.743Z,515.00
2022-09-05T09:21:06.569Z,511.00
2022-09-05T09:22:05.754Z,508.00
2022-09-05T09:23:08.124Z,509.00
2022-09-05T09:24:05.471Z,509.00
2022-09-05T09:25:29.576Z,506.00
2022-09-05T09:26:04.592Z,508.00
2022-09-05T09:27:07.220Z,507.00
2022-09-05T09:28:47.373Z,507.00
2022-09-05T09:29:51.254Z,552.00
2022-09-05T09:30:43.106Z,527.00
2022-09-05T09:31:46.439Z,524.00
2022-09-05T09:32:44.291Z,522.00
2022-09-05T09:33:45.230Z,523.00
2022-09-05T09:35:21.338Z,522.00
2022-09-05T09:35:44.601Z,522.00
2022-09-05T09:36:43.758Z,520.00
2022-09-05T09:37:51.619Z,518.00
2022-09-05T09:38:48.081Z,517.00
2022-09-05T09:39:44.169Z,515.00
2022-09-05T09:40:47.403Z,518.00
2022-09-05T09:41:48.132Z,517.00
2022-09-05T09:42:51.921Z,517.00
2022-09-05T09:43:53.198Z,515.00
2022-09-05T09:44:45.752Z,514.00
2022-09-05T09:45:49.055Z,512.00
2022-09-05T09:46:52.056Z,509.00
2022-09-05T09:47:45.197Z,505.00
2022-09-05T09:48:46.190Z,503.00
2022-09-05T09:49:49.395Z,501.00
2022-09-05T09:50:59.268Z,500.00
2022-09-05T09:51:49.766Z,501.00
2022-09-05T09:52:45.935Z,500.00
2022-09-05T09:53:47.718Z,500.00
2022-09-05T09:54:47.928Z,502.00
2022-09-05T09:55:46.230Z,501.00
2022-09-05T09:56:47.148Z,502.00
2022-09-05T09:57:47.309Z,502.00
2022-09-05T09:58:47.462Z,505.00
2022-09-05T09:59:54.627Z,504.00
2022-09-05T10:00:47.769Z,503.00
2022-09-05T10:12:29.601Z,542.00
2022-09-05T10:13:29.708Z,515.00
2022-09-05T10:14:47.832Z,511.00
2022-09-05T10:15:31.370Z,512.00
2022-09-05T10:16:30.126Z,511.00
2022-09-05T10:17:29.317Z,511.00
2022-09-05T10:18:31.563Z,510.00
2022-09-05T10:20:31.647Z,509.00
2022-09-05T10:21:31.124Z,507.00
2022-09-05T10:22:36.643Z,504.00
2022-09-05T10:23:32.057Z,504.00
2022-09-05T10:24:30.171Z,502.00
2022-09-05T10:25:31.468Z,496.00
2022-09-05T10:26:31.356Z,493.00
2022-09-05T10:27:31.461Z,494.00
2022-09-05T10:28:31.608Z,492.00
2022-09-05T10:29:37.991Z,490.00
2022-09-05T10:31:55.568Z,491.00
2022-09-05T10:34:56.455Z,489.00
2022-09-05T10:35:05.773Z,489.00
2022-09-05T10:35:08.404Z,489.00
2022-09-05T10:35:15.329Z,488.00
2022-09-05T10:35:33.297Z,489.00
2022-09-05T10:36:35.630Z,490.00
2022-09-05T10:37:33.501Z,491.00
2022-09-05T10:38:34.321Z,490.00
2022-09-05T10:39:32.168Z,491.00
2022-09-05T10:40:39.685Z,491.00
2022-09-05T10:41:35.771Z,491.00
2022-09-05T10:42:51.569Z,492.00
2022-09-05T10:43:33.515Z,492.00
2022-09-05T10:44:34.235Z,495.00
2022-09-05T10:45:38.642Z,495.00
2022-09-05T10:46:50.141Z,496.00
2022-09-05T10:47:35.767Z,496.00
2022-09-05T10:48:34.576Z,498.00
2022-09-05T10:49:36.184Z,498.00
2022-09-05T10:50:33.734Z,497.00
2022-09-05T10:51:39.206Z,497.00
2022-09-05T10:52:34.344Z,496.00
2022-09-05T10:53:39.107Z,496.00
2022-09-05T10:54:33.910Z,495.00
2022-09-05T10:55:34.843Z,493.00
2022-09-05T10:56:35.176Z,493.00
2022-09-05T10:57:36.966Z,491.00
2022-09-05T11:01:26.286Z,490.00
2022-09-05T11:02:19.198Z,487.00
2022-09-05T11:02:20.742Z,489.00
2022-09-05T11:02:24.541Z,489.00
2022-09-05T11:02:42.405Z,489.00
2022-09-05T11:03:36.463Z,491.00
2022-09-05T11:04:49.509Z,493.00
2022-09-05T11:05:36.556Z,491.00
2022-09-05T11:06:35.589Z,489.00
2022-09-05T11:07:36.831Z,485.00
2022-09-05T11:08:39.612Z,485.00
2022-09-05T11:09:35.940Z,485.00
2022-09-05T11:10:39.147Z,483.00
2022-09-05T11:11:37.304Z,481.00
2022-09-05T11:12:38.783Z,479.00
2022-09-05T11:13:37.237Z,479.00
2022-09-05T11:14:36.822Z,478.00
2022-09-05T11:15:43.889Z,478.00
2022-09-05T11:16:49.147Z,478.00
2022-09-05T11:17:41.844Z,479.00
2022-09-05T11:18:56.086Z,478.00
2022-09-05T11:19:39.697Z,479.00
2022-09-05T11:20:40.671Z,481.00
2022-09-05T11:21:38.222Z,482.00
2022-09-05T11:23:57.201Z,514.00
2022-09-05T11:24:53.629Z,493.00
2022-09-05T11:25:55.256Z,494.00
2022-09-05T11:27:13.789Z,494.00
2022-09-05T11:27:55.087Z,493.00
2022-09-05T11:29:00.216Z,492.00
2022-09-05T11:29:56.650Z,492.00
2022-09-05T11:30:54.791Z,491.00
2022-09-05T11:31:54.925Z,491.00
2022-09-05T11:39:45.900Z,485.00
2022-09-05T11:39:55.851Z,484.00
2022-09-05T11:39:58.168Z,490.00
2022-09-05T11:40:00.370Z,490.00
2022-09-05T11:40:04.607Z,494.00
2022-09-05T11:40:08.819Z,484.00
2022-09-05T11:40:26.311Z,485.00
2022-09-05T11:41:05.303Z,485.00
2022-09-05T11:41:57.063Z,485.00
2022-09-05T11:42:54.157Z,487.00
2022-09-05T11:44:00.997Z,486.00
2022-09-05T11:44:54.557Z,488.00
2022-09-05T11:45:55.305Z,490.00
2022-09-05T11:46:53.740Z,488.00
2022-09-05T11:47:55.477Z,486.00
2022-09-05T11:48:54.423Z,485.00
2022-09-05T11:49:54.159Z,486.00
2022-09-05T11:50:54.311Z,484.00
2022-09-05T11:51:56.328Z,484.00
2022-09-05T11:52:56.429Z,485.00
2022-09-05T11:53:54.767Z,487.00
2022-09-05T11:54:56.585Z,490.00
2022-09-05T11:55:55.408Z,491.00
2022-09-05T11:57:02.224Z,491.00
2022-09-05T11:57:56.908Z,491.00
2022-09-05T11:58:55.442Z,489.00
2022-09-05T12:00:10.665Z,488.00
2022-09-05T12:01:41.659Z,489.00
2022-09-05T12:01:56.714Z,488.00
2022-09-05T12:02:56.904Z,487.00
2022-09-05T12:04:00.286Z,487.00
2022-09-05T12:05:59.078Z,487.00
2022-09-05T12:06:56.305Z,486.00
2022-09-05T12:07:58.031Z,486.00
2022-09-05T12:08:56.556Z,486.00
2022-09-05T12:09:57.311Z,486.00
2022-09-05T12:10:56.957Z,480.00
2022-09-05T12:11:56.970Z,479.00
2022-09-05T12:12:58.877Z,476.00
2022-09-05T12:13:57.346Z,478.00
2022-09-05T12:14:57.430Z,479.00
2022-09-05T12:16:08.635Z,477.00
2022-09-05T12:16:58.768Z,475.00
2022-09-05T12:17:59.493Z,475.00
2022-09-05T12:19:06.147Z,473.00
2022-09-05T12:19:59.350Z,469.00
2022-09-05T12:20:59.066Z,467.00
2022-09-05T12:21:58.257Z,467.00
2022-09-05T12:23:00.538Z,466.00
2022-09-05T12:25:15.982Z,463.00
2022-09-05T12:25:24.993Z,463.00
2022-09-05T12:27:41.714Z,461.00
2022-09-05T12:29:26.366Z,459.00
2022-09-05T12:29:35.019Z,457.00
2022-09-05T12:30:01.016Z,458.00
2022-09-05T12:32:36.507Z,457.00
2022-09-05T12:33:48.048Z,461.00
2022-09-05T12:36:01.358Z,462.00
2022-09-05T12:36:04.777Z,464.00
2022-09-05T12:36:06.118Z,464.00
2022-09-05T12:36:13.058Z,466.00
2022-09-05T12:40:48.190Z,468.00
2022-09-05T12:40:55.848Z,466.00
2022-09-05T12:40:57.036Z,466.00
2022-09-05T12:41:37.036Z,464.00
2022-09-05T12:41:38.838Z,463.00
2022-09-05T12:41:41.715Z,462.00
2022-09-05T12:42:10.667Z,488.00
2022-09-05T12:42:14.006Z,465.00
2022-09-05T12:44:37.032Z,466.00
2022-09-05T12:44:39.010Z,468.00
2022-09-05T12:45:02.560Z,464.00
2022-09-05T12:46:02.255Z,465.00
2022-09-05T12:47:16.863Z,465.00
2022-09-05T12:48:04.056Z,467.00
2022-09-05T12:49:07.406Z,467.00
2022-09-05T12:50:03.606Z,466.00
2022-09-05T12:51:03.984Z,463.00
2022-09-05T12:52:03.714Z,461.00
2022-09-05T12:53:02.969Z,461.00
2022-09-05T12:54:02.256Z,461.00
2022-09-05T12:55:02.417Z,462.00
2022-09-05T12:56:49.978Z,462.00
2022-09-05T13:00:06.915Z,464.00
2022-09-05T13:02:55.731Z,465.00
2022-09-05T13:02:57.343Z,463.00
2022-09-05T13:03:02.202Z,463.00
2022-09-05T13:03:09.382Z,463.00
2022-09-05T13:03:09.582Z,463.00
2022-09-05T13:03:27.273Z,462.00
2022-09-05T13:04:18.165Z,464.00
2022-09-05T13:05:04.671Z,464.00
2022-09-05T13:06:03.741Z,463.00
2022-09-05T13:07:04.873Z,463.00
2022-09-05T13:08:03.919Z,461.00
2022-09-05T13:09:04.031Z,462.00
2022-09-05T13:12:02.883Z,462.00
2022-09-05T13:14:47.523Z,461.00
2022-09-05T13:14:49.343Z,461.00
2022-09-05T13:15:00.899Z,466.00
2022-09-05T13:15:01.942Z,464.00
2022-09-05T13:15:19.997Z,464.00
2022-09-05T13:16:06.920Z,464.00
2022-09-05T13:17:06.217Z,466.00
2022-09-05T13:18:05.156Z,466.00
2022-09-05T13:19:06.869Z,463.00
2022-09-05T13:20:05.423Z,466.00
2022-09-05T13:21:05.549Z,468.00
2022-09-05T13:22:05.715Z,468.00
2022-09-05T13:23:05.843Z,466.00
2022-09-05T13:24:07.043Z,465.00
2022-09-05T13:25:06.062Z,463.00
2022-09-05T13:26:06.222Z,466.00
2022-09-05T13:27:07.452Z,465.00
2022-09-05T13:28:07.410Z,464.00
2022-09-05T13:29:10.713Z,462.00
2022-09-05T13:33:06.001Z,465.00
2022-09-05T13:37:58.389Z,468.00
2022-09-05T13:37:58.901Z,467.00
2022-09-05T13:38:02.657Z,469.00
2022-09-05T13:38:03.038Z,469.00
2022-09-05T13:38:04.968Z,468.00
2022-09-05T13:38:13.809Z,470.00
2022-09-05T13:38:29.398Z,467.00
2022-09-05T13:39:09.948Z,472.00
2022-09-05T13:40:08.855Z,472.00
2022-09-05T13:41:08.913Z,471.00
2022-09-05T13:42:09.292Z,471.00
2022-09-05T13:43:10.481Z,472.00
2022-09-05T13:44:26.554Z,470.00
2022-09-05T13:45:10.603Z,468.00
2022-09-05T13:46:08.914Z,468.00
2022-09-05T13:47:29.546Z,469.00
2022-09-05T13:48:10.021Z,470.00
2022-09-05T13:49:27.816Z,468.00
2022-09-05T13:50:11.861Z,467.00
2022-09-05T13:51:10.264Z,471.00
2022-09-05T13:52:11.174Z,468.00
2022-09-05T13:53:13.479Z,469.00
2022-09-05T13:54:11.766Z,470.00
2022-09-05T13:55:10.896Z,468.00
2022-09-05T13:56:11.054Z,466.00
2022-09-05T13:57:11.802Z,470.00
2022-09-05T13:58:11.119Z,469.00
2022-09-05T13:59:11.279Z,472.00
2022-09-05T14:00:18.714Z,470.00
2022-09-05T14:01:12.715Z,470.00
2022-09-05T14:02:26.341Z,473.00
2022-09-05T14:04:12.644Z,471.00
2022-09-05T14:05:20.065Z,470.00
2022-09-05T14:06:24.869Z,470.00
2022-09-05T14:08:12.621Z,468.00
2022-09-05T14:10:12.907Z,466.00
2022-09-05T14:11:11.989Z,465.00
2022-09-05T14:12:12.138Z,463.00
2022-09-05T14:13:14.075Z,463.00
2022-09-05T14:14:13.643Z,465.00
2022-09-05T14:15:14.204Z,464.00
2022-09-05T14:16:12.659Z,462.00
2022-09-05T14:18:21.463Z,460.00
2022-09-05T14:19:15.133Z,461.00
2022-09-05T14:20:14.770Z,460.00
2022-09-05T14:21:16.268Z,460.00
2022-09-05T14:22:20.264Z,462.00
2022-09-05T14:23:15.594Z,460.00
2022-09-05T14:24:16.977Z,458.00
2022-09-05T14:25:15.690Z,458.00
2022-09-05T14:26:15.103Z,459.00
2022-09-05T14:27:14.906Z,460.00
2022-09-05T14:28:15.180Z,461.00
2022-09-05T14:29:14.417Z,462.00
2022-09-05T14:31:09.634Z,462.00
2022-09-05T14:37:28.614Z,460.00
2022-09-05T14:37:43.567Z,456.00
2022-09-05T14:37:46.202Z,459.00
2022-09-05T14:37:48.501Z,454.00
2022-09-05T14:37:50.096Z,454.00
2022-09-05T14:37:52.108Z,457.00
2022-09-05T14:37:52.711Z,454.00
2022-09-05T14:38:16.787Z,453.00
2022-09-05T14:39:15.605Z,456.00
2022-09-05T14:40:29.741Z,459.00
2022-09-05T14:41:16.799Z,461.00
2022-09-05T14:42:15.918Z,460.00
2022-09-05T14:43:26.859Z,459.00
2022-09-05T14:44:17.199Z,462.00
2022-09-05T14:45:16.332Z,462.00
2022-09-05T14:46:17.734Z,460.00
2022-09-05T14:47:35.285Z,458.00
2022-09-05T14:48:17.723Z,459.00
2022-09-05T14:49:18.344Z,457.00
2022-09-05T14:50:20.813Z,456.00
2022-09-05T14:51:25.782Z,458.00
2022-09-05T14:52:20.337Z,460.00
2022-09-05T14:57:23.723Z,457.00
2022-09-05T15:02:38.029Z,456.00
2022-09-05T15:02:41.077Z,458.00
2022-09-05T15:02:44.859Z,459.00
2022-09-05T15:02:45.700Z,460.00
2022-09-05T15:02:49.443Z,460.00
2022-09-05T15:02:51.649Z,459.00
2022-09-05T15:03:21.763Z,456.00
2022-09-05T15:04:35.483Z,455.00
2022-09-05T15:05:19.778Z,456.00
2022-09-05T15:06:18.910Z,456.00
2022-09-05T15:07:21.139Z,457.00
2022-09-05T15:08:26.994Z,456.00
2022-09-05T15:12:14.091Z,451.00
2022-09-05T15:12:16.355Z,448.00
2022-09-05T15:12:23.311Z,446.00
2022-09-05T15:12:31.278Z,447.00
2022-09-05T15:13:20.757Z,452.00
2022-09-05T15:14:20.876Z,454.00
2022-09-05T15:15:19.987Z,452.00
2022-09-05T15:16:20.207Z,449.00
2022-09-05T15:17:20.274Z,450.00
2022-09-05T15:18:21.534Z,449.00
2022-09-05T15:19:20.547Z,450.00
2022-09-05T15:20:21.676Z,452.00
2022-09-05T15:21:33.945Z,452.00
2022-09-05T15:22:24.499Z,450.00
2022-09-05T15:23:26.090Z,447.00
2022-09-05T15:24:22.057Z,447.00
2022-09-05T15:25:22.499Z,448.00
2022-09-05T15:26:25.660Z,447.00
2022-09-05T15:27:21.651Z,446.00
2022-09-05T15:28:21.875Z,446.00
2022-09-05T15:29:21.958Z,445.00
2022-09-05T15:30:23.289Z,444.00
2022-09-05T15:31:23.222Z,443.00
2022-09-05T15:32:23.325Z,441.00
2022-09-05T15:33:25.346Z,442.00
2022-09-05T15:34:23.671Z,443.00
2022-09-05T15:35:23.899Z,446.00
2022-09-05T15:36:24.128Z,448.00
2022-09-05T15:37:22.948Z,449.00
2022-09-05T15:38:24.150Z,448.00
2022-09-05T15:39:23.275Z,449.00
2022-09-05T15:40:24.622Z,449.00
2022-09-05T15:41:24.552Z,450.00
2022-09-05T15:42:24.765Z,447.00
2022-09-05T15:43:25.486Z,448.00
2022-09-05T15:44:23.861Z,448.00
2022-09-05T15:45:25.006Z,448.00
2022-09-05T15:46:24.201Z,447.00
2022-09-05T15:47:25.244Z,449.00
2022-09-05T15:48:26.102Z,447.00
2022-09-05T15:49:25.465Z,451.00
2022-09-05T15:50:25.575Z,448.00
2022-09-05T15:51:25.685Z,447.00
2022-09-05T15:52:29.241Z,444.00
2022-09-05T15:53:26.126Z,445.00
2022-09-05T15:54:35.978Z,445.00
2022-09-05T15:55:26.313Z,446.00
2022-09-05T15:56:26.926Z,446.00
2022-09-05T15:57:25.451Z,445.00
2022-09-05T15:58:26.666Z,443.00
2022-09-05T15:59:26.707Z,441.00
2022-09-05T16:00:26.859Z,440.00
2022-09-05T16:12:17.687Z,472.00
2022-09-05T16:12:51.280Z,458.00
2022-09-05T16:13:53.472Z,457.00
2022-09-05T16:16:41.729Z,459.00
2022-09-05T16:18:44.238Z,457.00
2022-09-05T16:23:15.488Z,457.00
2022-09-05T16:23:17.035Z,455.00
2022-09-05T16:23:28.092Z,448.00
2022-09-05T16:23:33.142Z,455.00
2022-09-05T16:23:33.826Z,457.00
2022-09-05T16:23:34.265Z,451.00
2022-09-05T16:23:34.272Z,451.00
2022-09-05T16:23:51.731Z,449.00
2022-09-05T16:24:59.721Z,448.00
2022-09-05T16:25:51.746Z,445.00
2022-09-05T16:26:52.480Z,447.00
2022-09-05T16:27:50.987Z,447.00
2022-09-05T16:28:51.141Z,447.00
2022-09-05T16:29:51.217Z,449.00
2022-09-05T16:30:53.448Z,449.00
2022-09-05T16:31:51.524Z,449.00
2022-09-05T16:32:52.592Z,448.00
2022-09-05T16:33:52.695Z,448.00
2022-09-05T16:34:52.813Z,448.00
2022-09-05T16:35:53.036Z,448.00
2022-09-05T16:37:05.110Z,445.00
2022-09-05T16:37:54.175Z,445.00
2022-09-05T16:38:53.335Z,449.00
2022-09-05T16:39:53.625Z,452.00
2022-09-05T16:40:53.809Z,452.00
2022-09-05T16:41:52.685Z,450.00
2022-09-05T16:42:54.932Z,449.00
2022-09-05T16:43:53.942Z,449.00
2022-09-05T16:44:53.804Z,453.00
2022-09-05T16:45:54.858Z,452.00
2022-09-05T16:46:54.124Z,450.00
2022-09-05T16:47:54.284Z,451.00
2022-09-05T16:48:55.545Z,450.00
2022-09-05T16:49:57.356Z,448.00
2022-09-05T16:50:54.773Z,448.00
2022-09-05T16:51:54.930Z,447.00
2022-09-05T16:52:56.012Z,448.00
2022-09-05T16:53:58.568Z,447.00
2022-09-05T16:54:54.336Z,447.00
2022-09-05T16:55:54.593Z,447.00
2022-09-05T16:56:54.605Z,443.00
2022-09-05T16:57:54.734Z,444.00
2022-09-05T16:58:55.959Z,444.00
2022-09-05T16:59:54.988Z,445.00
2022-09-05T17:00:56.297Z,442.00
2022-09-05T17:02:05.963Z,441.00
2022-09-05T17:02:57.467Z,444.00
2022-09-05T17:03:56.681Z,444.00
2022-09-05T17:05:03.312Z,443.00
2022-09-05T17:05:56.899Z,444.00